Current Weather

Chandler Muni

Chandler, Arizona (KCHD)

Report from: Tuesday, May 28, 2024 8:47 PM MST
Current time: Wednesday, May 29, 2024 2:39 AM MST

Nearby weather – Weather history – Daily summaries
Weather forecast

Temperature33.0°C (91.4°F)
Heat index30.6°C (87.1°F)
Dew point-7.0°C (19.4°F)
Winds 4 kts (2.1 m/s, 4.6 mph) West (270°)
Visibility10 mi. (16.1 km)
Clouds Sky clear
Altimeter29.84 in.Hg (1010 mB)
Relative humidity7 %
Density altitude2,209 ft. (673 m)
Remarks Last observation of the day
Flight conditions Visual Meteorological Conditions
Raw dataKCHD 290347Z 27004KT 10SM CLR 33/M07 A2984 RMK LAST
An error has occurred. This application may no longer respond until reloaded. Reload 🗙